sensor_id;sensor_type;location;lat;lon;timestamp;temperature;humidity
40287;DHT22;25998;46.604;13.610;2023-12-20T00:01:55;0.20;99.90
40287;DHT22;25998;46.604;13.610;2023-12-20T00:05:06;0.40;99.90
40287;DHT22;25998;46.604;13.610;2023-12-20T00:08:17;0.30;99.90
40287;DHT22;25998;46.604;13.610;2023-12-20T00:11:28;0.40;99.90
40287;DHT22;25998;46.604;13.610;2023-12-20T00:14:39;0.60;99.90
40287;DHT22;25998;46.604;13.610;2023-12-20T00:17:50;0.50;99.90
40287;DHT22;25998;46.604;13.610;2023-12-20T00:21:00;0.60;99.90
40287;DHT22;25998;46.604;13.610;2023-12-20T00:24:11;0.50;99.90
40287;DHT22;25998;46.604;13.610;2023-12-20T00:27:22;0.40;99.90
40287;DHT22;25998;46.604;13.610;2023-12-20T00:30:33;0.60;99.90
40287;DHT22;25998;46.604;13.610;2023-12-20T00:33:44;0.70;99.90
40287;DHT22;25998;46.604;13.610;2023-12-20T00:36:57;0.70;99.90
40287;DHT22;25998;46.604;13.610;2023-12-20T00:40:08;0.70;99.90
40287;DHT22;25998;46.604;13.610;2023-12-20T00:43:19;0.50;99.90
40287;DHT22;25998;46.604;13.610;2023-12-20T00:46:30;0.50;99.90
40287;DHT22;25998;46.604;13.610;2023-12-20T00:49:41;0.30;99.90
40287;DHT22;25998;46.604;13.610;2023-12-20T00:52:52;0.00;99.90
40287;DHT22;25998;46.604;13.610;2023-12-20T00:56:05;0.00;99.90
40287;DHT22;25998;46.604;13.610;2023-12-20T00:59:17;0.00;99.90
40287;DHT22;25998;46.604;13.610;2023-12-20T01:02:28;0.10;99.90
40287;DHT22;25998;46.604;13.610;2023-12-20T01:05:40;0.20;99.90
40287;DHT22;25998;46.604;13.610;2023-12-20T01:08:50;0.30;99.90
40287;DHT22;25998;46.604;13.610;2023-12-20T01:12:01;0.30;99.90
40287;DHT22;25998;46.604;13.610;2023-12-20T01:15:12;0.20;99.90
40287;DHT22;25998;46.604;13.610;2023-12-20T01:18:23;0.30;99.90
40287;DHT22;25998;46.604;13.610;2023-12-20T01:21:34;0.30;99.90
40287;DHT22;25998;46.604;13.610;2023-12-20T01:24:45;0.40;99.90
40287;DHT22;25998;46.604;13.610;2023-12-20T01:27:56;0.50;99.90
40287;DHT22;25998;46.604;13.610;2023-12-20T01:31:08;0.30;99.90
40287;DHT22;25998;46.604;13.610;2023-12-20T01:34:19;0.10;99.90
40287;DHT22;25998;46.604;13.610;2023-12-20T01:37:31;0.30;99.90
40287;DHT22;25998;46.604;13.610;2023-12-20T01:40:42;0.40;99.90
40287;DHT22;25998;46.604;13.610;2023-12-20T01:43:53;0.50;99.90
40287;DHT22;25998;46.604;13.610;2023-12-20T01:47:04;0.50;99.90
40287;DHT22;25998;46.604;13.610;2023-12-20T01:50:15;0.50;99.90
40287;DHT22;25998;46.604;13.610;2023-12-20T01:53:27;0.50;99.90
40287;DHT22;25998;46.604;13.610;2023-12-20T01:56:39;0.60;99.90
40287;DHT22;25998;46.604;13.610;2023-12-20T01:59:50;0.40;99.90
40287;DHT22;25998;46.604;13.610;2023-12-20T02:03:01;0.20;99.90
40287;DHT22;25998;46.604;13.610;2023-12-20T02:06:13;0.20;99.90
40287;DHT22;25998;46.604;13.610;2023-12-20T02:09:24;0.10;99.90
40287;DHT22;25998;46.604;13.610;2023-12-20T02:12:35;0.10;99.90
40287;DHT22;25998;46.604;13.610;2023-12-20T02:15:46;0.30;99.90
40287;DHT22;25998;46.604;13.610;2023-12-20T02:18:57;0.10;99.90
40287;DHT22;25998;46.604;13.610;2023-12-20T02:22:12;0.00;99.90
40287;DHT22;25998;46.604;13.610;2023-12-20T02:25:23;-0.10;99.90
40287;DHT22;25998;46.604;13.610;2023-12-20T02:28:34;-0.30;99.90
40287;DHT22;25998;46.604;13.610;2023-12-20T02:31:45;-0.30;99.90
40287;DHT22;25998;46.604;13.610;2023-12-20T02:34:56;-0.20;99.90
40287;DHT22;25998;46.604;13.610;2023-12-20T02:38:07;0.00;99.90
40287;DHT22;25998;46.604;13.610;2023-12-20T02:41:18;-0.10;99.90
40287;DHT22;25998;46.604;13.610;2023-12-20T02:44:29;0.00;99.90
40287;DHT22;25998;46.604;13.610;2023-12-20T02:47:40;-0.10;99.90
40287;DHT22;25998;46.604;13.610;2023-12-20T02:50:51;0.00;99.90
40287;DHT22;25998;46.604;13.610;2023-12-20T02:54:02;0.10;99.90
40287;DHT22;25998;46.604;13.610;2023-12-20T02:57:13;0.30;99.90
40287;DHT22;25998;46.604;13.610;2023-12-20T03:00:23;0.00;99.90
40287;DHT22;25998;46.604;13.610;2023-12-20T03:03:34;-0.10;99.90
40287;DHT22;25998;46.604;13.610;2023-12-20T03:06:45;-0.10;99.90
40287;DHT22;25998;46.604;13.610;2023-12-20T03:09:56;-0.10;99.90
40287;DHT22;25998;46.604;13.610;2023-12-20T03:13:07;-0.10;99.90
40287;DHT22;25998;46.604;13.610;2023-12-20T03:16:18;-0.10;99.90
40287;DHT22;25998;46.604;13.610;2023-12-20T03:19:29;-0.10;99.90
40287;DHT22;25998;46.604;13.610;2023-12-20T03:22:40;0.00;99.90
40287;DHT22;25998;46.604;13.610;2023-12-20T03:25:51;0.00;99.90
40287;DHT22;25998;46.604;13.610;2023-12-20T03:29:02;0.10;99.90
40287;DHT22;25998;46.604;13.610;2023-12-20T03:32:12;0.20;99.90
40287;DHT22;25998;46.604;13.610;2023-12-20T03:35:23;0.20;99.90
40287;DHT22;25998;46.604;13.610;2023-12-20T03:38:34;0.10;99.90
40287;DHT22;25998;46.604;13.610;2023-12-20T03:41:45;0.20;99.90
40287;DHT22;25998;46.604;13.610;2023-12-20T03:44:56;0.40;99.90
40287;DHT22;25998;46.604;13.610;2023-12-20T03:48:07;0.40;99.90
40287;DHT22;25998;46.604;13.610;2023-12-20T03:51:18;0.40;99.90
40287;DHT22;25998;46.604;13.610;2023-12-20T03:54:29;0.40;99.90
40287;DHT22;25998;46.604;13.610;2023-12-20T03:57:40;0.40;99.90
40287;DHT22;25998;46.604;13.610;2023-12-20T04:00:51;0.30;99.90
40287;DHT22;25998;46.604;13.610;2023-12-20T04:04:01;0.20;99.90
40287;DHT22;25998;46.604;13.610;2023-12-20T04:07:12;0.30;99.90
40287;DHT22;25998;46.604;13.610;2023-12-20T04:10:23;0.40;99.90
40287;DHT22;25998;46.604;13.610;2023-12-20T04:13:34;0.30;99.90
40287;DHT22;25998;46.604;13.610;2023-12-20T04:16:45;0.30;99.90
40287;DHT22;25998;46.604;13.610;2023-12-20T04:19:56;0.20;99.90
40287;DHT22;25998;46.604;13.610;2023-12-20T04:23:07;0.20;99.90
40287;DHT22;25998;46.604;13.610;2023-12-20T04:26:17;0.10;99.90
40287;DHT22;25998;46.604;13.610;2023-12-20T04:29:28;0.20;99.90
40287;DHT22;25998;46.604;13.610;2023-12-20T04:32:39;0.30;99.90
40287;DHT22;25998;46.604;13.610;2023-12-20T04:35:50;0.40;99.90
40287;DHT22;25998;46.604;13.610;2023-12-20T04:39:01;0.30;99.90
40287;DHT22;25998;46.604;13.610;2023-12-20T04:42:13;0.40;99.90
40287;DHT22;25998;46.604;13.610;2023-12-20T04:45:24;0.20;99.90
40287;DHT22;25998;46.604;13.610;2023-12-20T04:48:35;0.20;99.90
40287;DHT22;25998;46.604;13.610;2023-12-20T04:51:46;0.20;99.90
40287;DHT22;25998;46.604;13.610;2023-12-20T04:54:57;0.00;99.90
40287;DHT22;25998;46.604;13.610;2023-12-20T04:58:08;0.00;99.90
40287;DHT22;25998;46.604;13.610;2023-12-20T05:01:18;-0.10;99.90
40287;DHT22;25998;46.604;13.610;2023-12-20T05:04:29;-0.10;99.90
40287;DHT22;25998;46.604;13.610;2023-12-20T05:07:40;0.00;99.90
40287;DHT22;25998;46.604;13.610;2023-12-20T05:10:56;0.10;99.90
40287;DHT22;25998;46.604;13.610;2023-12-20T05:14:07;0.10;99.90
40287;DHT22;25998;46.604;13.610;2023-12-20T05:17:18;0.20;99.90
40287;DHT22;25998;46.604;13.610;2023-12-20T05:20:31;0.10;99.90
40287;DHT22;25998;46.604;13.610;2023-12-20T05:23:41;0.10;99.90
40287;DHT22;25998;46.604;13.610;2023-12-20T05:26:52;0.20;99.90
40287;DHT22;25998;46.604;13.610;2023-12-20T05:30:03;0.30;99.90
40287;DHT22;25998;46.604;13.610;2023-12-20T05:33:15;0.30;99.90
40287;DHT22;25998;46.604;13.610;2023-12-20T05:36:26;0.40;99.90
40287;DHT22;25998;46.604;13.610;2023-12-20T05:39:37;0.40;99.90
40287;DHT22;25998;46.604;13.610;2023-12-20T05:42:47;0.30;99.90
40287;DHT22;25998;46.604;13.610;2023-12-20T05:45:58;0.20;99.90
40287;DHT22;25998;46.604;13.610;2023-12-20T05:49:09;0.00;99.90
40287;DHT22;25998;46.604;13.610;2023-12-20T05:52:21;-0.10;99.90
40287;DHT22;25998;46.604;13.610;2023-12-20T05:55:32;-0.30;99.90
40287;DHT22;25998;46.604;13.610;2023-12-20T05:58:43;-0.10;99.90
40287;DHT22;25998;46.604;13.610;2023-12-20T06:01:54;-0.20;99.90
40287;DHT22;25998;46.604;13.610;2023-12-20T06:05:05;-0.30;99.90
40287;DHT22;25998;46.604;13.610;2023-12-20T06:08:16;-0.30;99.90
40287;DHT22;25998;46.604;13.610;2023-12-20T06:11:27;-0.40;99.90
40287;DHT22;25998;46.604;13.610;2023-12-20T06:14:38;-0.20;99.90
40287;DHT22;25998;46.604;13.610;2023-12-20T06:17:49;-0.20;99.90
40287;DHT22;25998;46.604;13.610;2023-12-20T06:21:00;-0.30;99.90
40287;DHT22;25998;46.604;13.610;2023-12-20T06:24:11;-0.20;99.90
40287;DHT22;25998;46.604;13.610;2023-12-20T06:27:22;-0.10;99.90
40287;DHT22;25998;46.604;13.610;2023-12-20T06:30:32;-0.10;99.90
40287;DHT22;25998;46.604;13.610;2023-12-20T06:33:44;0.10;99.90
40287;DHT22;25998;46.604;13.610;2023-12-20T06:36:54;0.20;99.90
40287;DHT22;25998;46.604;13.610;2023-12-20T06:40:06;0.10;99.90
40287;DHT22;25998;46.604;13.610;2023-12-20T06:43:17;0.10;99.90
40287;DHT22;25998;46.604;13.610;2023-12-20T06:46:28;0.00;99.90
40287;DHT22;25998;46.604;13.610;2023-12-20T06:49:39;0.10;99.90
40287;DHT22;25998;46.604;13.610;2023-12-20T06:52:50;0.10;99.90
40287;DHT22;25998;46.604;13.610;2023-12-20T06:56:00;-0.10;99.90
40287;DHT22;25998;46.604;13.610;2023-12-20T06:59:11;-0.30;99.90
40287;DHT22;25998;46.604;13.610;2023-12-20T07:02:22;-0.50;99.90
40287;DHT22;25998;46.604;13.610;2023-12-20T07:05:33;-0.40;99.90
40287;DHT22;25998;46.604;13.610;2023-12-20T07:08:44;-0.40;99.90
40287;DHT22;25998;46.604;13.610;2023-12-20T07:11:55;-0.40;99.90
40287;DHT22;25998;46.604;13.610;2023-12-20T07:15:06;-0.40;99.90
40287;DHT22;25998;46.604;13.610;2023-12-20T07:18:18;-0.50;99.90
40287;DHT22;25998;46.604;13.610;2023-12-20T07:21:28;-0.60;99.90
40287;DHT22;25998;46.604;13.610;2023-12-20T07:24:39;-0.70;99.90
40287;DHT22;25998;46.604;13.610;2023-12-20T07:27:50;-0.60;99.90
40287;DHT22;25998;46.604;13.610;2023-12-20T07:31:01;-0.50;99.90
40287;DHT22;25998;46.604;13.610;2023-12-20T07:34:12;-0.50;99.90
40287;DHT22;25998;46.604;13.610;2023-12-20T07:37:23;-0.40;99.90
40287;DHT22;25998;46.604;13.610;2023-12-20T07:40:33;-0.30;99.90
40287;DHT22;25998;46.604;13.610;2023-12-20T07:43:44;-0.10;99.90
40287;DHT22;25998;46.604;13.610;2023-12-20T07:46:55;0.10;99.90
40287;DHT22;25998;46.604;13.610;2023-12-20T07:50:06;0.20;99.90
40287;DHT22;25998;46.604;13.610;2023-12-20T07:53:17;0.20;99.90
40287;DHT22;25998;46.604;13.610;2023-12-20T07:56:28;0.20;99.90
40287;DHT22;25998;46.604;13.610;2023-12-20T07:59:39;0.20;99.90
40287;DHT22;25998;46.604;13.610;2023-12-20T08:02:50;0.40;99.90
40287;DHT22;25998;46.604;13.610;2023-12-20T08:06:01;0.40;99.90
40287;DHT22;25998;46.604;13.610;2023-12-20T08:09:13;0.50;99.90
40287;DHT22;25998;46.604;13.610;2023-12-20T08:12:23;0.30;99.90
40287;DHT22;25998;46.604;13.610;2023-12-20T08:15:38;0.30;99.90
40287;DHT22;25998;46.604;13.610;2023-12-20T08:18:48;0.30;99.90
40287;DHT22;25998;46.604;13.610;2023-12-20T08:21:59;-0.10;99.90
40287;DHT22;25998;46.604;13.610;2023-12-20T08:25:10;-0.20;99.90
40287;DHT22;25998;46.604;13.610;2023-12-20T08:28:21;-0.10;99.90
40287;DHT22;25998;46.604;13.610;2023-12-20T08:31:32;0.00;99.90
40287;DHT22;25998;46.604;13.610;2023-12-20T08:34:43;0.10;99.90
40287;DHT22;25998;46.604;13.610;2023-12-20T08:37:53;0.20;99.90
40287;DHT22;25998;46.604;13.610;2023-12-20T08:41:05;0.40;99.90
40287;DHT22;25998;46.604;13.610;2023-12-20T08:44:16;0.30;99.90
40287;DHT22;25998;46.604;13.610;2023-12-20T08:47:27;0.30;99.90
40287;DHT22;25998;46.604;13.610;2023-12-20T08:50:38;0.20;99.90
40287;DHT22;25998;46.604;13.610;2023-12-20T08:53:49;0.30;99.90
40287;DHT22;25998;46.604;13.610;2023-12-20T08:57:00;0.40;99.90
40287;DHT22;25998;46.604;13.610;2023-12-20T09:00:11;0.70;99.90
40287;DHT22;25998;46.604;13.610;2023-12-20T09:03:22;0.70;99.90
40287;DHT22;25998;46.604;13.610;2023-12-20T09:06:33;0.70;99.90
40287;DHT22;25998;46.604;13.610;2023-12-20T09:09:44;0.70;99.90
40287;DHT22;25998;46.604;13.610;2023-12-20T09:12:55;0.80;99.90
40287;DHT22;25998;46.604;13.610;2023-12-20T09:16:08;0.90;99.90
40287;DHT22;25998;46.604;13.610;2023-12-20T09:19:19;0.90;99.90
40287;DHT22;25998;46.604;13.610;2023-12-20T09:22:29;1.00;99.90
40287;DHT22;25998;46.604;13.610;2023-12-20T09:25:40;1.10;99.90
40287;DHT22;25998;46.604;13.610;2023-12-20T09:28:51;1.20;99.90
40287;DHT22;25998;46.604;13.610;2023-12-20T09:32:02;0.90;99.90
40287;DHT22;25998;46.604;13.610;2023-12-20T09:35:13;0.90;99.90
40287;DHT22;25998;46.604;13.610;2023-12-20T09:38:25;0.80;99.90
40287;DHT22;25998;46.604;13.610;2023-12-20T09:41:37;0.90;99.90
40287;DHT22;25998;46.604;13.610;2023-12-20T09:44:50;1.10;99.90
40287;DHT22;25998;46.604;13.610;2023-12-20T09:48:03;1.20;99.90
40287;DHT22;25998;46.604;13.610;2023-12-20T09:51:15;1.30;99.90
40287;DHT22;25998;46.604;13.610;2023-12-20T09:54:28;1.40;99.90
40287;DHT22;25998;46.604;13.610;2023-12-20T09:57:39;1.50;99.90
40287;DHT22;25998;46.604;13.610;2023-12-20T10:00:51;1.50;99.90
40287;DHT22;25998;46.604;13.610;2023-12-20T10:04:07;1.40;99.90
40287;DHT22;25998;46.604;13.610;2023-12-20T10:07:19;1.50;99.90
40287;DHT22;25998;46.604;13.610;2023-12-20T10:10:30;1.60;99.90
40287;DHT22;25998;46.604;13.610;2023-12-20T10:13:42;1.60;99.90
40287;DHT22;25998;46.604;13.610;2023-12-20T10:16:53;1.70;99.90
40287;DHT22;25998;46.604;13.610;2023-12-20T10:20:05;1.60;99.90
40287;DHT22;25998;46.604;13.610;2023-12-20T10:23:20;1.50;99.90
40287;DHT22;25998;46.604;13.610;2023-12-20T10:26:31;1.50;99.90
40287;DHT22;25998;46.604;13.610;2023-12-20T10:29:42;1.70;99.90
40287;DHT22;25998;46.604;13.610;2023-12-20T10:32:53;1.90;99.90
40287;DHT22;25998;46.604;13.610;2023-12-20T10:36:04;1.90;99.90
40287;DHT22;25998;46.604;13.610;2023-12-20T10:39:15;1.90;99.90
40287;DHT22;25998;46.604;13.610;2023-12-20T10:42:28;1.80;99.90
40287;DHT22;25998;46.604;13.610;2023-12-20T10:45:42;1.70;99.90
40287;DHT22;25998;46.604;13.610;2023-12-20T10:48:54;1.10;99.90
40287;DHT22;25998;46.604;13.610;2023-12-20T10:52:06;0.90;99.90
40287;DHT22;25998;46.604;13.610;2023-12-20T10:55:18;1.00;99.90
40287;DHT22;25998;46.604;13.610;2023-12-20T10:58:30;1.20;99.90
40287;DHT22;25998;46.604;13.610;2023-12-20T11:01:42;1.40;99.90
40287;DHT22;25998;46.604;13.610;2023-12-20T11:04:59;1.60;99.90
40287;DHT22;25998;46.604;13.610;2023-12-20T11:08:36;1.70;99.90
40287;DHT22;25998;46.604;13.610;2023-12-20T11:15:19;1.70;99.90
40287;DHT22;25998;46.604;13.610;2023-12-20T11:18:31;1.80;99.90
40287;DHT22;25998;46.604;13.610;2023-12-20T11:21:42;1.90;99.90
40287;DHT22;25998;46.604;13.610;2023-12-20T11:24:53;2.10;99.90
40287;DHT22;25998;46.604;13.610;2023-12-20T11:28:11;2.10;99.90
40287;DHT22;25998;46.604;13.610;2023-12-20T11:31:22;2.10;99.90
40287;DHT22;25998;46.604;13.610;2023-12-20T11:34:36;2.10;99.90
40287;DHT22;25998;46.604;13.610;2023-12-20T11:37:46;1.50;99.90
40287;DHT22;25998;46.604;13.610;2023-12-20T11:40:59;1.20;99.90
40287;DHT22;25998;46.604;13.610;2023-12-20T11:44:14;0.90;99.90
40287;DHT22;25998;46.604;13.610;2023-12-20T11:47:28;1.00;99.90
40287;DHT22;25998;46.604;13.610;2023-12-20T11:50:39;1.00;99.90
40287;DHT22;25998;46.604;13.610;2023-12-20T11:53:53;1.30;99.90
40287;DHT22;25998;46.604;13.610;2023-12-20T11:57:04;1.60;99.90
40287;DHT22;25998;46.604;13.610;2023-12-20T12:00:15;1.80;99.90
40287;DHT22;25998;46.604;13.610;2023-12-20T12:03:26;1.90;99.90
40287;DHT22;25998;46.604;13.610;2023-12-20T12:06:37;1.90;99.90
40287;DHT22;25998;46.604;13.610;2023-12-20T12:09:48;2.00;99.90
40287;DHT22;25998;46.604;13.610;2023-12-20T12:12:59;2.10;99.90
40287;DHT22;25998;46.604;13.610;2023-12-20T12:16:11;2.10;99.90
40287;DHT22;25998;46.604;13.610;2023-12-20T12:19:23;2.20;99.90
40287;DHT22;25998;46.604;13.610;2023-12-20T12:22:34;2.30;99.90
40287;DHT22;25998;46.604;13.610;2023-12-20T12:25:46;2.40;99.90
40287;DHT22;25998;46.604;13.610;2023-12-20T12:28:57;2.50;99.90
40287;DHT22;25998;46.604;13.610;2023-12-20T12:32:09;2.60;99.90
40287;DHT22;25998;46.604;13.610;2023-12-20T12:35:20;2.70;99.90
40287;DHT22;25998;46.604;13.610;2023-12-20T12:38:32;2.70;99.90
40287;DHT22;25998;46.604;13.610;2023-12-20T12:41:43;2.70;99.90
40287;DHT22;25998;46.604;13.610;2023-12-20T12:44:54;2.50;99.90
40287;DHT22;25998;46.604;13.610;2023-12-20T12:48:06;2.30;99.90
40287;DHT22;25998;46.604;13.610;2023-12-20T12:51:17;2.10;99.90
40287;DHT22;25998;46.604;13.610;2023-12-20T12:54:28;2.00;99.90
40287;DHT22;25998;46.604;13.610;2023-12-20T12:57:39;2.10;99.90
40287;DHT22;25998;46.604;13.610;2023-12-20T13:00:50;2.20;99.90
40287;DHT22;25998;46.604;13.610;2023-12-20T13:04:01;2.30;99.90
40287;DHT22;25998;46.604;13.610;2023-12-20T13:07:17;2.30;99.90
40287;DHT22;25998;46.604;13.610;2023-12-20T13:10:28;2.20;99.90
40287;DHT22;25998;46.604;13.610;2023-12-20T13:13:39;2.20;99.90
40287;DHT22;25998;46.604;13.610;2023-12-20T13:16:49;2.20;99.90
40287;DHT22;25998;46.604;13.610;2023-12-20T13:20:00;2.30;99.90
40287;DHT22;25998;46.604;13.610;2023-12-20T13:23:11;2.30;99.90
40287;DHT22;25998;46.604;13.610;2023-12-20T13:26:22;2.30;99.90
40287;DHT22;25998;46.604;13.610;2023-12-20T13:29:33;2.40;99.90
40287;DHT22;25998;46.604;13.610;2023-12-20T13:32:44;2.40;99.90
40287;DHT22;25998;46.604;13.610;2023-12-20T13:35:55;2.40;99.90
40287;DHT22;25998;46.604;13.610;2023-12-20T13:39:07;2.40;99.90
40287;DHT22;25998;46.604;13.610;2023-12-20T13:42:18;2.50;99.90
40287;DHT22;25998;46.604;13.610;2023-12-20T13:45:31;2.50;99.90
40287;DHT22;25998;46.604;13.610;2023-12-20T13:48:41;2.60;99.90
40287;DHT22;25998;46.604;13.610;2023-12-20T13:51:53;2.70;99.90
40287;DHT22;25998;46.604;13.610;2023-12-20T13:55:05;2.60;99.90
40287;DHT22;25998;46.604;13.610;2023-12-20T13:58:18;2.50;99.90
40287;DHT22;25998;46.604;13.610;2023-12-20T14:01:30;2.40;99.90
40287;DHT22;25998;46.604;13.610;2023-12-20T14:04:41;2.60;99.90
40287;DHT22;25998;46.604;13.610;2023-12-20T14:07:52;2.70;99.90
40287;DHT22;25998;46.604;13.610;2023-12-20T14:11:03;2.70;99.90
40287;DHT22;25998;46.604;13.610;2023-12-20T14:14:14;2.70;99.90
40287;DHT22;25998;46.604;13.610;2023-12-20T14:17:25;2.80;99.90
40287;DHT22;25998;46.604;13.610;2023-12-20T14:20:36;2.70;99.90
40287;DHT22;25998;46.604;13.610;2023-12-20T14:23:47;2.70;99.90
40287;DHT22;25998;46.604;13.610;2023-12-20T14:26:58;2.60;99.90
40287;DHT22;25998;46.604;13.610;2023-12-20T14:30:09;2.70;99.90
40287;DHT22;25998;46.604;13.610;2023-12-20T14:33:20;2.60;99.90
40287;DHT22;25998;46.604;13.610;2023-12-20T14:36:32;2.50;99.90
40287;DHT22;25998;46.604;13.610;2023-12-20T14:39:43;2.40;99.90
40287;DHT22;25998;46.604;13.610;2023-12-20T14:42:54;2.30;99.90
40287;DHT22;25998;46.604;13.610;2023-12-20T14:46:04;2.30;99.90
40287;DHT22;25998;46.604;13.610;2023-12-20T14:49:16;2.30;99.90
40287;DHT22;25998;46.604;13.610;2023-12-20T14:52:27;2.20;99.90
40287;DHT22;25998;46.604;13.610;2023-12-20T14:55:38;2.20;99.90
40287;DHT22;25998;46.604;13.610;2023-12-20T14:58:49;2.20;99.90
40287;DHT22;25998;46.604;13.610;2023-12-20T15:02:00;2.10;99.90
40287;DHT22;25998;46.604;13.610;2023-12-20T15:05:15;2.00;99.90
40287;DHT22;25998;46.604;13.610;2023-12-20T15:08:26;1.90;99.90
40287;DHT22;25998;46.604;13.610;2023-12-20T15:11:37;1.80;99.90
40287;DHT22;25998;46.604;13.610;2023-12-20T15:14:48;1.80;99.90
40287;DHT22;25998;46.604;13.610;2023-12-20T15:17:59;1.90;99.90
40287;DHT22;25998;46.604;13.610;2023-12-20T15:21:10;1.70;99.90
40287;DHT22;25998;46.604;13.610;2023-12-20T15:24:20;1.50;99.90
40287;DHT22;25998;46.604;13.610;2023-12-20T15:27:38;1.50;99.90
40287;DHT22;25998;46.604;13.610;2023-12-20T15:30:49;1.50;99.90
40287;DHT22;25998;46.604;13.610;2023-12-20T15:34:00;1.60;99.90
40287;DHT22;25998;46.604;13.610;2023-12-20T15:37:11;1.80;99.90
40287;DHT22;25998;46.604;13.610;2023-12-20T15:40:22;1.70;99.90
40287;DHT22;25998;46.604;13.610;2023-12-20T15:43:33;1.80;99.90
40287;DHT22;25998;46.604;13.610;2023-12-20T15:46:44;1.70;99.90
40287;DHT22;25998;46.604;13.610;2023-12-20T15:49:55;1.40;99.90
40287;DHT22;25998;46.604;13.610;2023-12-20T15:53:06;1.30;99.90
40287;DHT22;25998;46.604;13.610;2023-12-20T15:56:17;1.40;99.90
40287;DHT22;25998;46.604;13.610;2023-12-20T15:59:28;1.40;99.90
40287;DHT22;25998;46.604;13.610;2023-12-20T16:02:39;1.30;99.90
40287;DHT22;25998;46.604;13.610;2023-12-20T16:05:50;1.30;99.90
40287;DHT22;25998;46.604;13.610;2023-12-20T16:09:01;1.40;99.90
40287;DHT22;25998;46.604;13.610;2023-12-20T16:12:12;1.40;99.90
40287;DHT22;25998;46.604;13.610;2023-12-20T16:15:23;1.20;99.90
40287;DHT22;25998;46.604;13.610;2023-12-20T16:18:33;1.10;99.90
40287;DHT22;25998;46.604;13.610;2023-12-20T16:21:46;1.20;99.90
40287;DHT22;25998;46.604;13.610;2023-12-20T16:24:56;1.30;99.90
40287;DHT22;25998;46.604;13.610;2023-12-20T16:28:07;1.20;99.90
40287;DHT22;25998;46.604;13.610;2023-12-20T16:31:18;1.20;99.90
40287;DHT22;25998;46.604;13.610;2023-12-20T16:34:29;1.30;99.90
40287;DHT22;25998;46.604;13.610;2023-12-20T16:37:40;1.20;99.90
40287;DHT22;25998;46.604;13.610;2023-12-20T16:40:51;1.20;99.90
40287;DHT22;25998;46.604;13.610;2023-12-20T16:44:02;1.10;99.90
40287;DHT22;25998;46.604;13.610;2023-12-20T16:47:13;1.00;99.90
40287;DHT22;25998;46.604;13.610;2023-12-20T16:50:23;0.90;99.90
40287;DHT22;25998;46.604;13.610;2023-12-20T16:53:34;0.80;99.90
40287;DHT22;25998;46.604;13.610;2023-12-20T16:56:45;0.90;99.90
40287;DHT22;25998;46.604;13.610;2023-12-20T16:59:56;0.90;99.90
40287;DHT22;25998;46.604;13.610;2023-12-20T17:03:07;1.10;99.90
40287;DHT22;25998;46.604;13.610;2023-12-20T17:06:18;0.90;99.90
40287;DHT22;25998;46.604;13.610;2023-12-20T17:09:29;0.80;99.90
40287;DHT22;25998;46.604;13.610;2023-12-20T17:12:40;0.80;99.90
40287;DHT22;25998;46.604;13.610;2023-12-20T17:15:51;0.80;99.90
40287;DHT22;25998;46.604;13.610;2023-12-20T17:19:02;0.80;99.90
40287;DHT22;25998;46.604;13.610;2023-12-20T17:22:14;0.90;99.90
40287;DHT22;25998;46.604;13.610;2023-12-20T17:25:25;0.70;99.90
40287;DHT22;25998;46.604;13.610;2023-12-20T17:28:36;0.70;99.90
40287;DHT22;25998;46.604;13.610;2023-12-20T17:31:47;0.80;99.90
40287;DHT22;25998;46.604;13.610;2023-12-20T17:34:58;0.90;99.90
40287;DHT22;25998;46.604;13.610;2023-12-20T17:38:08;0.80;99.90
40287;DHT22;25998;46.604;13.610;2023-12-20T17:41:19;0.70;99.90
40287;DHT22;25998;46.604;13.610;2023-12-20T17:44:30;0.90;99.90
40287;DHT22;25998;46.604;13.610;2023-12-20T17:47:41;0.70;99.90
40287;DHT22;25998;46.604;13.610;2023-12-20T17:50:52;0.60;99.90
40287;DHT22;25998;46.604;13.610;2023-12-20T17:54:03;0.60;99.90
40287;DHT22;25998;46.604;13.610;2023-12-20T17:57:15;0.60;99.90
40287;DHT22;25998;46.604;13.610;2023-12-20T18:00:32;0.60;99.90
40287;DHT22;25998;46.604;13.610;2023-12-20T18:03:44;0.80;99.90
40287;DHT22;25998;46.604;13.610;2023-12-20T18:06:55;0.60;99.90
40287;DHT22;25998;46.604;13.610;2023-12-20T18:10:06;0.50;99.90
40287;DHT22;25998;46.604;13.610;2023-12-20T18:13:17;0.40;99.90
40287;DHT22;25998;46.604;13.610;2023-12-20T18:16:28;0.40;99.90
40287;DHT22;25998;46.604;13.610;2023-12-20T18:19:39;0.50;99.90
40287;DHT22;25998;46.604;13.610;2023-12-20T18:22:50;0.50;99.90
40287;DHT22;25998;46.604;13.610;2023-12-20T18:26:00;0.50;99.90
40287;DHT22;25998;46.604;13.610;2023-12-20T18:29:11;0.50;99.90
40287;DHT22;25998;46.604;13.610;2023-12-20T18:32:23;0.40;99.90
40287;DHT22;25998;46.604;13.610;2023-12-20T18:35:36;0.50;99.90
40287;DHT22;25998;46.604;13.610;2023-12-20T18:38:50;0.50;99.90
40287;DHT22;25998;46.604;13.610;2023-12-20T18:42:01;0.60;99.90
40287;DHT22;25998;46.604;13.610;2023-12-20T18:45:13;0.60;99.90
40287;DHT22;25998;46.604;13.610;2023-12-20T18:48:24;0.50;99.90
40287;DHT22;25998;46.604;13.610;2023-12-20T18:51:35;0.50;99.90
40287;DHT22;25998;46.604;13.610;2023-12-20T18:54:46;0.40;99.90
40287;DHT22;25998;46.604;13.610;2023-12-20T18:57:57;0.30;99.90
40287;DHT22;25998;46.604;13.610;2023-12-20T19:01:08;0.30;99.90
40287;DHT22;25998;46.604;13.610;2023-12-20T19:04:19;0.40;99.90
40287;DHT22;25998;46.604;13.610;2023-12-20T19:07:30;0.50;99.90
40287;DHT22;25998;46.604;13.610;2023-12-20T19:10:41;0.50;99.90
40287;DHT22;25998;46.604;13.610;2023-12-20T19:13:51;0.60;99.90
40287;DHT22;25998;46.604;13.610;2023-12-20T19:17:02;0.50;99.90
40287;DHT22;25998;46.604;13.610;2023-12-20T19:20:14;0.50;99.90
40287;DHT22;25998;46.604;13.610;2023-12-20T19:23:25;0.40;99.90
40287;DHT22;25998;46.604;13.610;2023-12-20T19:26:38;0.50;99.90
40287;DHT22;25998;46.604;13.610;2023-12-20T19:29:48;0.60;99.90
40287;DHT22;25998;46.604;13.610;2023-12-20T19:32:59;0.60;99.90
40287;DHT22;25998;46.604;13.610;2023-12-20T19:36:10;0.60;99.90
40287;DHT22;25998;46.604;13.610;2023-12-20T19:39:21;0.60;99.90
40287;DHT22;25998;46.604;13.610;2023-12-20T19:42:32;0.60;99.90
40287;DHT22;25998;46.604;13.610;2023-12-20T19:45:46;0.60;99.90
40287;DHT22;25998;46.604;13.610;2023-12-20T19:48:57;0.60;99.90
40287;DHT22;25998;46.604;13.610;2023-12-20T19:52:08;0.60;99.90
40287;DHT22;25998;46.604;13.610;2023-12-20T19:55:20;0.70;99.90
40287;DHT22;25998;46.604;13.610;2023-12-20T19:58:31;0.60;99.90
40287;DHT22;25998;46.604;13.610;2023-12-20T20:01:42;0.50;99.90
40287;DHT22;25998;46.604;13.610;2023-12-20T20:04:53;0.40;99.90
40287;DHT22;25998;46.604;13.610;2023-12-20T20:08:05;0.50;99.90
40287;DHT22;25998;46.604;13.610;2023-12-20T20:11:15;0.40;99.90